Time;durP1;ratioP1;P1;durP2;ratioP2;P2;SDS_P1;SDS_P2;PMS_P1;PMS_P2;Temp;Humidity;BMP_temperature;BMP_pressure;BME280_temperature;BME280_humidity;BME280_pressure;Samples;Min_cycle;Max_cycle;Signal;HPM_P1;HPM_P2
2021/10/13 00:02:59;;;;;;;11.68;2.50;;;;;;;7.94;100.00;102207.00;10583234;28;20046;-59
2021/10/13 00:08:01;;;;;;;6.20;2.38;;;;;;;8.12;100.00;102210.03;10583028;28;20061;-59
2021/10/13 00:13:03;;;;;;;10.85;2.30;;;;;;;8.24;100.00;102186.28;10583379;28;20050;-59
2021/10/13 00:18:06;;;;;;;12.40;2.55;;;;;;;8.19;100.00;102180.31;10582155;28;20048;-59
2021/10/13 00:23:10;;;;;;;7.65;2.60;;;;;;;8.51;100.00;102183.88;10582321;28;20086;-59
2021/10/13 00:28:12;;;;;;;9.73;3.22;;;;;;;8.55;100.00;102188.09;10582235;28;20051;-60
2021/10/13 00:33:15;;;;;;;6.47;2.33;;;;;;;8.52;100.00;102194.28;10582280;28;20130;-59
2021/10/13 00:38:17;;;;;;;3.90;1.38;;;;;;;8.55;100.00;102203.78;10582449;28;20048;-59
2021/10/13 00:43:20;;;;;;;4.97;1.65;;;;;;;8.53;100.00;102202.97;10582172;28;20116;-59
2021/10/13 00:48:22;;;;;;;3.38;1.02;;;;;;;8.35;100.00;102194.69;10582565;28;20051;-59
2021/10/13 00:53:24;;;;;;;5.60;1.63;;;;;;;8.48;100.00;102194.41;10582187;28;20058;-59
2021/10/13 00:58:27;;;;;;;3.42;0.93;;;;;;;8.22;100.00;102195.00;10563541;28;20039;-59
2021/10/13 01:03:59;;;;;;;4.82;1.48;;;;;;;8.22;100.00;102210.69;10582044;28;20043;-59
2021/10/13 01:09:48;;;;;;;5.07;1.87;;;;;;;8.17;100.00;102213.41;10581459;28;20499;-60
2021/10/13 01:15:21;;;;;;;5.25;1.60;;;;;;;8.14;100.00;102209.13;10505743;28;20051;-59
2021/10/13 01:20:45;;;;;;;5.05;1.75;;;;;;;8.06;100.00;102205.84;10581724;28;20048;-59
2021/10/13 01:26:02;;;;;;;11.77;2.70;;;;;;;8.07;100.00;102199.75;10581251;28;20051;-59
2021/10/13 01:31:22;;;;;;;8.02;2.40;;;;;;;8.07;100.00;102204.06;10584592;28;20055;-59
2021/10/13 01:36:33;;;;;;;9.27;1.88;;;;;;;8.13;100.00;102198.72;10571729;28;20062;-59
2021/10/13 01:41:38;;;;;;;17.20;3.87;;;;;;;8.17;100.00;102209.06;10588610;28;20498;-59
2021/10/13 01:46:44;;;;;;;8.70;1.98;;;;;;;8.18;100.00;102210.75;10589015;28;20051;-59
2021/10/13 01:51:48;;;;;;;6.53;2.55;;;;;;;8.23;100.00;102217.63;10570614;28;20516;-59
2021/10/13 01:56:50;;;;;;;6.93;2.22;;;;;;;8.13;100.00;102217.81;10588298;28;20048;-59
2021/10/13 02:01:53;;;;;;;8.38;2.10;;;;;;;8.43;100.00;102214.53;10570031;28;20047;-59
2021/10/13 02:06:56;;;;;;;8.73;2.47;;;;;;;8.10;100.00;102225.75;10570041;28;20051;-59
2021/10/13 02:11:59;;;;;;;8.75;2.58;;;;;;;8.10;100.00;102233.59;10588101;28;20070;-59
2021/10/13 02:17:02;;;;;;;12.35;2.60;;;;;;;7.92;100.00;102250.50;10569617;28;20044;-59
2021/10/13 02:22:06;;;;;;;12.95;3.20;;;;;;;8.11;100.00;102252.69;10587295;28;20050;-59
2021/10/13 02:27:29;;;;;;;9.27;2.50;;;;;;;8.01;100.00;102249.44;10568925;28;20400;-59
2021/10/13 02:32:32;;;;;;;10.45;2.95;;;;;;;7.83;100.00;102248.09;10568903;28;20517;-59
2021/10/13 02:37:35;;;;;;;13.00;3.72;;;;;;;7.70;100.00;102257.97;10568908;28;20040;-60
2021/10/13 02:42:39;;;;;;;7.45;2.85;;;;;;;7.88;100.00;102256.66;10585666;28;20418;-59
2021/10/13 02:47:54;;;;;;;7.82;2.90;;;;;;;7.87;100.00;102252.38;10568723;28;20052;-60
2021/10/13 02:53:21;;;;;;;9.20;2.85;;;;;;;7.75;100.00;102252.63;10567918;28;20070;-59
2021/10/13 02:58:37;;;;;;;7.68;4.00;;;;;;;7.74;100.00;102253.53;10586114;28;20043;-59
2021/10/13 03:03:50;;;;;;;8.90;3.22;;;;;;;7.96;100.00;102249.53;10585598;28;20040;-59
2021/10/13 03:08:53;;;;;;;7.65;3.10;;;;;;;7.80;100.00;102245.56;10585238;28;20052;-59
2021/10/13 03:13:56;;;;;;;12.13;3.05;;;;;;;7.98;100.00;102241.69;10567079;28;20043;-59
2021/10/13 03:18:59;;;;;;;9.48;3.35;;;;;;;8.12;100.00;102246.56;10566809;28;20114;-59
2021/10/13 03:24:02;;;;;;;8.65;2.83;;;;;;;8.28;100.00;102252.28;10566589;28;20043;-60
2021/10/13 03:29:04;;;;;;;11.00;3.47;;;;;;;8.32;100.00;102272.16;10566205;28;20058;-59
2021/10/13 03:34:07;;;;;;;10.50;2.28;;;;;;;8.44;100.00;102269.31;10584407;28;20055;-59
2021/10/13 03:39:10;;;;;;;17.13;3.72;;;;;;;8.26;100.00;102272.34;10584007;28;20051;-59
2021/10/13 03:44:13;;;;;;;12.95;3.13;;;;;;;8.47;100.00;102284.03;10565887;28;20040;-60
2021/10/13 03:49:15;;;;;;;6.60;2.45;;;;;;;8.50;100.00;102276.13;10583644;28;20048;-60
2021/10/13 03:54:17;;;;;;;8.55;2.30;;;;;;;8.68;100.00;102282.63;10583191;28;20046;-59
2021/10/13 03:59:20;;;;;;;4.90;2.40;;;;;;;8.64;100.00;102284.47;10582995;28;20410;-59
2021/10/13 04:04:22;;;;;;;7.10;3.10;;;;;;;8.52;100.00;102282.16;10583698;28;20043;-59
2021/10/13 04:09:24;;;;;;;4.80;2.50;;;;;;;8.57;100.00;102282.91;10582869;28;20048;-59
2021/10/13 04:14:27;;;;;;;10.38;4.50;;;;;;;8.55;100.00;102293.38;10582668;28;20043;-59
2021/10/13 04:19:29;;;;;;;8.32;3.35;;;;;;;8.62;100.00;102301.06;10582767;28;20043;-60
2021/10/13 04:24:31;;;;;;;11.35;4.38;;;;;;;8.44;100.00;102289.31;10582600;28;20043;-59
2021/10/13 04:29:33;;;;;;;19.35;3.30;;;;;;;8.60;100.00;102293.25;10582723;28;20054;-59
2021/10/13 04:34:36;;;;;;;11.18;3.83;;;;;;;8.38;100.00;102277.25;10582387;28;20399;-59
2021/10/13 04:39:38;;;;;;;7.80;2.65;;;;;;;8.67;100.00;102280.91;10581926;28;20050;-59
2021/10/13 04:44:40;;;;;;;9.00;3.63;;;;;;;8.29;100.00;102267.91;10582088;28;20395;-59
2021/10/13 04:49:43;;;;;;;9.23;4.13;;;;;;;8.32;100.00;102270.44;10581674;28;20445;-59
2021/10/13 04:54:45;;;;;;;7.63;2.67;;;;;;;8.63;100.00;102268.84;10582188;28;20043;-59
2021/10/13 04:59:48;;;;;;;7.43;3.53;;;;;;;8.66;100.00;102280.06;10581389;28;20043;-59
2021/10/13 05:04:50;;;;;;;6.45;4.00;;;;;;;8.54;100.00;102290.84;10584885;28;20047;-59
2021/10/13 05:09:52;;;;;;;3.95;2.70;;;;;;;8.62;100.00;102295.84;10589846;28;20047;-59
2021/10/13 05:14:54;;;;;;;9.02;2.80;;;;;;;8.37;100.00;102304.22;10589991;28;20043;-59
2021/10/13 05:19:57;;;;;;;6.40;2.83;;;;;;;8.48;100.00;102304.88;10589471;28;20051;-59
2021/10/13 05:24:59;;;;;;;9.93;3.38;;;;;;;8.39;100.00;102305.06;10589690;28;20040;-59
2021/10/13 05:30:02;;;;;;;6.57;3.90;;;;;;;8.48;100.00;102306.63;10570969;28;20410;-59
2021/10/13 05:35:05;;;;;;;8.68;4.50;;;;;;;8.08;100.00;102318.81;10589388;28;20054;-59
2021/10/13 05:40:08;;;;;;;10.07;4.38;;;;;;;8.12;100.00;102320.47;10589003;28;20055;-59
2021/10/13 05:45:11;;;;;;;12.20;4.45;;;;;;;7.97;100.00;102318.22;10589034;28;20043;-60
2021/10/13 05:50:14;;;;;;;9.15;4.15;;;;;;;7.96;100.00;102329.53;10588341;28;20046;-59
2021/10/13 05:55:16;;;;;;;9.68;3.65;;;;;;;7.90;100.00;102348.78;10588730;28;20040;-59
2021/10/13 06:00:19;;;;;;;7.55;3.35;;;;;;;7.93;100.00;102353.06;10588133;28;20043;-60
2021/10/13 06:05:22;;;;;;;9.48;3.55;;;;;;;7.85;100.00;102362.81;10587837;28;20487;-59
2021/10/13 06:10:24;;;;;;;9.70;4.43;;;;;;;7.80;100.00;102366.38;10587453;28;20048;-60
2021/10/13 06:15:34;;;;;;;9.57;3.75;;;;;;;7.85;100.00;102368.91;10586376;28;20047;-59
2021/10/13 06:20:37;;;;;;;5.80;3.83;;;;;;;8.08;100.00;102378.81;10587321;28;20148;-60
2021/10/13 06:25:39;;;;;;;11.70;3.95;;;;;;;8.27;100.00;102370.59;10587164;28;20052;-60
2021/10/13 06:30:42;;;;;;;11.57;4.10;;;;;;;8.42;100.00;102370.22;10586689;28;20054;-59
2021/10/13 06:35:44;;;;;;;9.65;3.33;;;;;;;8.39;100.00;102375.53;10586582;28;20047;-60
2021/10/13 06:40:47;;;;;;;8.60;2.72;;;;;;;8.66;100.00;102386.28;10586550;28;20071;-59
2021/10/13 06:46:13;;;;;;;7.93;2.90;;;;;;;8.79;100.00;102381.59;10586458;28;20075;-60
2021/10/13 06:51:16;;;;;;;7.63;2.70;;;;;;;8.79;100.00;102379.81;10586651;28;20054;-59
2021/10/13 06:56:18;;;;;;;7.68;3.33;;;;;;;8.92;100.00;102381.25;10585507;28;20475;-59
2021/10/13 07:01:24;;;;;;;13.35;3.30;;;;;;;8.99;100.00;102389.78;10568788;28;20069;-59
2021/10/13 07:06:27;;;;;;;10.40;2.70;;;;;;;9.26;100.00;102389.97;10585654;28;20063;-59
2021/10/13 07:11:29;;;;;;;9.23;2.85;;;;;;;9.36;100.00;102398.44;10585267;28;20048;-59
2021/10/13 07:16:32;;;;;;;7.45;2.67;;;;;;;9.49;100.00;102399.81;10584890;28;20059;-59
2021/10/13 07:21:34;;;;;;;11.60;3.00;;;;;;;9.74;100.00;102402.59;10584746;28;20043;-59
2021/10/13 07:26:37;;;;;;;6.55;3.05;;;;;;;9.57;100.00;102400.47;10585245;28;20043;-59
2021/10/13 07:31:39;;;;;;;3.75;2.22;;;;;;;9.89;100.00;102397.84;10566822;28;20052;-59
2021/10/13 07:36:41;;;;;;;8.93;2.40;;;;;;;10.11;100.00;102398.06;10584228;28;20054;-59
2021/10/13 07:41:44;;;;;;;6.00;1.92;;;;;;;10.21;100.00;102405.59;10583945;28;20040;-59
2021/10/13 07:46:46;;;;;;;6.60;2.15;;;;;;;10.25;100.00;102400.28;10566524;28;20043;-60
2021/10/13 07:51:52;;;;;;;4.85;1.98;;;;;;;10.47;100.00;102417.06;10583317;28;20479;-59
2021/10/13 07:56:54;;;;;;;8.75;2.10;;;;;;;10.25;100.00;102421.22;10583361;28;20043;-59
2021/10/13 08:01:57;;;;;;;4.68;2.28;;;;;;;10.11;100.00;102424.25;10583367;28;20049;-59
2021/10/13 08:06:59;;;;;;;9.77;3.25;;;;;;;10.49;100.00;102417.88;10583065;28;20413;-59
2021/10/13 08:12:02;;;;;;;8.75;2.70;;;;;;;10.74;100.00;102431.06;10582954;28;20054;-59
2021/10/13 08:17:04;;;;;;;4.70;2.13;;;;;;;10.68;99.28;102423.38;10583136;28;20058;-59
2021/10/13 08:22:06;;;;;;;7.93;2.13;;;;;;;10.91;99.78;102427.00;10582008;28;20051;-59
2021/10/13 08:27:09;;;;;;;8.23;3.10;;;;;;;10.92;100.00;102436.59;10563868;28;20487;-60
2021/10/13 08:32:11;;;;;;;8.20;2.50;;;;;;;10.65;100.00;102435.72;10581606;28;20066;-59
2021/10/13 08:37:14;;;;;;;7.03;2.25;;;;;;;11.03;100.00;102438.84;10581818;28;20407;-59
2021/10/13 08:42:26;;;;;;;9.18;2.80;;;;;;;11.19;99.64;102441.84;10581842;28;20044;-59
2021/10/13 08:47:28;;;;;;;13.45;3.60;;;;;;;11.57;98.95;102442.28;10582010;28;20057;-59
2021/10/13 08:52:31;;;;;;;9.32;3.25;;;;;;;11.88;98.19;102434.16;10581688;28;20048;-59
2021/10/13 08:57:33;;;;;;;8.15;3.03;;;;;;;11.82;98.53;102445.75;10581400;28;20050;-59
2021/10/13 09:02:44;;;;;;;8.18;3.20;;;;;;;11.87;99.81;102450.84;10563824;28;20051;-59
2021/10/13 09:07:56;;;;;;;11.63;3.28;;;;;;;11.75;99.60;102444.25;10580112;28;20075;-60
2021/10/13 09:13:03;;;;;;;8.00;2.72;;;;;;;13.17;91.58;102450.13;10581373;28;20107;-60
2021/10/13 09:18:07;;;;;;;7.63;2.38;;;;;;;15.26;85.89;102440.56;10581573;28;20071;-59
2021/10/13 09:23:28;;;;;;;5.95;2.10;;;;;;;13.14;88.18;102450.25;10581393;28;20184;-60
2021/10/13 09:28:31;;;;;;;6.82;1.90;;;;;;;14.18;86.94;102457.16;10564065;28;20048;-60
2021/10/13 09:33:33;;;;;;;7.28;1.70;;;;;;;14.35;86.40;102445.81;10581352;28;20055;-60
2021/10/13 09:38:43;;;;;;;6.40;1.85;;;;;;;13.21;81.78;102450.84;10580906;28;20466;-60
2021/10/13 09:43:46;;;;;;;6.38;2.47;;;;;;;13.92;85.15;102451.31;10580978;28;20394;-59
2021/10/13 09:48:58;;;;;;;6.13;1.95;;;;;;;14.38;85.88;102460.66;10580549;28;20048;-60
2021/10/13 09:54:07;;;;;;;7.55;1.92;;;;;;;14.58;85.38;102465.81;10586962;28;20505;-60
2021/10/13 09:59:14;;;;;;;5.88;1.90;;;;;;;14.96;79.04;102457.00;10570209;28;20050;-61
2021/10/13 10:04:19;;;;;;;6.38;1.83;;;;;;;14.56;81.30;102469.44;10587910;28;20039;-60
2021/10/13 10:09:26;;;;;;;7.40;2.10;;;;;;;14.04;79.82;102470.13;10569619;28;20054;-63
2021/10/13 10:14:35;;;;;;;10.00;2.38;;;;;;;15.20;76.57;102462.84;10569770;28;20043;-61
2021/10/13 10:19:43;;;;;;;7.25;2.17;;;;;;;14.70;73.54;102472.31;10587206;28;20051;-61
2021/10/13 10:24:53;;;;;;;22.80;3.85;;;;;;;17.12;75.33;102472.75;10587251;28;20403;-61
2021/10/13 10:30:08;;;;;;;6.00;1.67;;;;;;;16.81;66.06;102486.84;10586852;28;20506;-61
2021/10/13 10:35:13;;;;;;;6.75;2.10;;;;;;;15.20;73.73;102486.59;10586658;28;20495;-60
2021/10/13 10:40:39;;;;;;;7.28;1.80;;;;;;;15.27;76.08;102479.22;10586273;28;20483;-61
2021/10/13 10:45:55;;;;;;;14.52;2.20;;;;;;;15.40;75.22;102483.78;10568443;28;20134;-60
2021/10/13 10:50:59;;;;;;;5.03;1.55;;;;;;;15.12;73.59;102486.13;10586340;28;20079;-62
2021/10/13 10:56:24;;;;;;;8.35;2.22;;;;;;;15.55;70.79;102478.66;10586049;28;20060;-61
2021/10/13 11:01:27;;;;;;;8.40;2.05;;;;;;;15.74;72.32;102486.47;10586009;28;20044;-61
2021/10/13 11:06:33;;;;;;;5.60;1.75;;;;;;;14.91;75.19;102480.09;10567695;28;20395;-61
2021/10/13 11:11:40;;;;;;;4.88;1.83;;;;;;;14.22;74.83;102485.09;10585922;28;20047;-61
2021/10/13 11:16:58;;;;;;;4.85;1.40;;;;;;;14.73;74.11;102488.00;10585289;28;20097;-62
2021/10/13 11:22:04;;;;;;;4.15;1.67;;;;;;;14.04;78.16;102478.03;10585440;28;20055;-60
2021/10/13 11:27:06;;;;;;;5.43;1.50;;;;;;;15.13;75.97;102470.22;10585005;28;20134;-61
2021/10/13 11:32:14;;;;;;;6.38;1.50;;;;;;;14.97;75.35;102472.75;10583980;28;20410;-63
2021/10/13 11:37:24;;;;;;;5.78;1.13;;;;;;;14.81;75.49;102475.31;10584601;28;20048;-61
2021/10/13 11:42:29;;;;;;;8.55;1.25;;;;;;;14.27;73.69;102475.19;10584226;28;20047;-62
2021/10/13 11:47:33;;;;;;;8.50;1.38;;;;;;;16.73;64.21;102471.44;10583962;28;20051;-62
2021/10/13 11:52:41;;;;;;;5.63;1.17;;;;;;;17.69;63.02;102464.06;10565490;28;20495;-62
2021/10/13 11:57:57;;;;;;;3.88;0.98;;;;;;;15.36;64.15;102470.81;10583393;28;20043;-62
2021/10/13 12:03:08;;;;;;;4.90;0.95;;;;;;;15.21;71.00;102473.34;10565337;28;20043;-62
2021/10/13 12:08:29;;;;;;;4.10;1.02;;;;;;;16.05;71.38;102483.06;10583682;28;20130;-62
2021/10/13 12:13:33;;;;;;;3.45;1.10;;;;;;;16.19;66.99;102473.56;10582277;28;20487;-62
2021/10/13 12:18:58;;;;;;;3.28;1.15;;;;;;;15.75;66.31;102477.59;10567473;28;20457;-62
2021/10/13 12:24:06;;;;;;;2.55;0.80;;;;;;;14.53;70.73;102486.28;10582603;28;20457;-61
2021/10/13 12:29:14;;;;;;;5.00;1.70;;;;;;;14.86;73.32;102475.94;10583541;28;20055;-62
2021/10/13 12:34:19;;;;;;;8.02;1.67;;;;;;;15.19;74.75;102472.53;10564303;28;20051;-62
2021/10/13 12:39:28;;;;;;;5.85;1.10;;;;;;;16.20;65.72;102476.13;10582416;28;20047;-62
2021/10/13 12:44:31;;;;;;;3.70;1.10;;;;;;;15.02;71.23;102467.25;10581874;28;20146;-62
2021/10/13 12:49:35;;;;;;;6.32;0.90;;;;;;;14.84;69.59;102464.59;10563828;28;20411;-62
2021/10/13 12:54:43;;;;;;;6.13;1.30;;;;;;;14.47;70.25;102478.66;10581871;28;20068;-62
2021/10/13 12:59:46;;;;;;;4.78;0.90;;;;;;;14.17;75.72;102473.91;10582576;28;20043;-61
2021/10/13 13:04:49;;;;;;;4.43;1.00;;;;;;;13.66;77.33;102477.94;10581756;28;20051;-61
2021/10/13 13:09:51;;;;;;;2.67;1.42;;;;;;;14.39;76.66;102471.13;10581571;28;20048;-62
2021/10/13 13:14:54;;;;;;;3.83;1.20;;;;;;;14.35;75.38;102472.16;10581412;28;20483;-62
2021/10/13 13:19:56;;;;;;;6.45;1.42;;;;;;;14.64;74.82;102476.13;10581112;28;20044;-62
2021/10/13 13:24:58;;;;;;;3.45;1.00;;;;;;;14.68;72.70;102461.00;10583143;28;20051;-62
2021/10/13 13:30:01;;;;;;;6.45;1.55;;;;;;;14.87;70.91;102458.31;10589381;28;20391;-62
2021/10/13 13:35:03;;;;;;;2.95;1.27;;;;;;;15.56;71.95;102451.31;10589702;28;20070;-62
2021/10/13 13:40:09;;;;;;;2.08;0.80;;;;;;;15.10;69.85;102459.81;10589134;28;20043;-62
2021/10/13 13:45:12;;;;;;;1.83;0.80;;;;;;;14.47;71.98;102457.56;10571054;28;20043;-62
2021/10/13 13:50:14;;;;;;;7.07;1.08;;;;;;;14.43;69.89;102461.28;10589217;28;20066;-62
2021/10/13 13:55:17;;;;;;;5.32;0.80;;;;;;;14.42;71.65;102454.28;10588423;28;20418;-62
2021/10/13 14:00:20;;;;;;;2.08;0.70;;;;;;;14.47;73.60;102465.47;10588273;28;20047;-62
2021/10/13 14:05:23;;;;;;;2.75;1.17;;;;;;;14.35;75.19;102464.25;10588075;28;20050;-62
2021/10/13 14:10:25;;;;;;;3.20;1.17;;;;;;;14.53;77.17;102473.09;10587552;28;20050;-62
2021/10/13 14:15:28;;;;;;;7.05;1.70;;;;;;;14.22;76.31;102473.66;10587643;28;20043;-62
2021/10/13 14:20:31;;;;;;;8.80;1.60;;;;;;;13.81;77.11;102486.94;10587124;28;20425;-57
2021/10/13 14:25:33;;;;;;;7.70;1.42;;;;;;;13.66;78.58;102485.81;10587966;28;20047;-62
2021/10/13 14:30:36;;;;;;;11.55;1.17;;;;;;;12.73;80.70;102499.28;10587114;28;20079;-62
2021/10/13 14:35:38;;;;;;;8.60;1.50;;;;;;;12.63;82.82;102491.75;10568566;28;20055;-62
2021/10/13 14:40:42;;;;;;;9.02;1.38;;;;;;;12.78;83.24;102495.53;10586138;28;20039;-61
2021/10/13 14:45:44;;;;;;;9.07;1.30;;;;;;;12.79;83.33;102501.66;10568492;28;20047;-62
2021/10/13 14:50:47;;;;;;;9.43;1.38;;;;;;;12.63;85.12;102501.41;10568170;28;20051;-62
2021/10/13 14:55:49;;;;;;;10.93;1.50;;;;;;;12.63;85.91;102502.25;10586662;28;20403;-62
2021/10/13 15:00:51;;;;;;;4.53;1.77;;;;;;;12.58;87.01;102516.50;10585383;28;20406;-62
2021/10/13 15:05:54;;;;;;;4.80;1.50;;;;;;;12.58;87.66;102517.34;10585720;28;20397;-62
2021/10/13 15:10:57;;;;;;;6.20;1.83;;;;;;;12.56;89.43;102515.69;10585514;28;20047;-62
2021/10/13 15:15:59;;;;;;;6.53;1.70;;;;;;;12.63;90.40;102522.44;10585215;28;20113;-62
2021/10/13 15:21:02;;;;;;;5.75;1.83;;;;;;;12.55;89.60;102522.72;10584923;28;20043;-62
2021/10/13 15:26:04;;;;;;;10.63;2.03;;;;;;;12.56;91.35;102520.97;10585052;28;20054;-62
2021/10/13 15:31:07;;;;;;;9.75;1.80;;;;;;;12.66;90.09;102526.69;10584315;28;20055;-62
2021/10/13 15:36:12;;;;;;;3.13;2.30;;;;;;;12.65;89.56;102523.22;10584510;28;20051;-60
2021/10/13 15:41:15;;;;;;;8.70;2.03;;;;;;;12.47;91.25;102522.13;10583914;28;20400;-60
2021/10/13 15:46:17;;;;;;;10.20;1.75;;;;;;;12.30;93.46;102524.56;10584078;28;20049;-63
2021/10/13 15:51:19;;;;;;;6.65;1.48;;;;;;;12.26;94.87;102526.44;10582919;28;20051;-63
2021/10/13 15:56:22;;;;;;;8.95;1.52;;;;;;;12.32;92.29;102522.72;10583648;28;20050;-63
2021/10/13 16:01:24;;;;;;;11.88;2.15;;;;;;;12.34;93.33;102523.50;10583122;28;20054;-63
2021/10/13 16:06:28;;;;;;;4.05;1.75;;;;;;;12.22;95.95;102523.06;10583371;28;20052;-63
2021/10/13 16:11:30;;;;;;;8.73;2.08;;;;;;;11.98;94.68;102514.31;10582875;28;20096;-63
2021/10/13 16:16:33;;;;;;;4.00;1.40;;;;;;;12.11;97.53;102516.50;10583085;28;20050;-61
2021/10/13 16:21:36;;;;;;;4.65;1.23;;;;;;;11.97;100.00;102528.38;10582458;28;20052;-60
2021/10/13 16:26:42;;;;;;;6.03;1.42;;;;;;;11.78;100.00;102524.63;10564995;28;20071;-63
2021/10/13 16:31:47;;;;;;;5.03;1.40;;;;;;;11.78;100.00;102525.47;10582408;28;20052;-63
2021/10/13 16:36:49;;;;;;;7.20;1.73;;;;;;;11.79;100.00;102510.59;10565418;28;20051;-63
2021/10/13 16:41:52;;;;;;;5.07;1.60;;;;;;;11.64;100.00;102510.22;10582098;28;20063;-63
2021/10/13 16:46:54;;;;;;;10.30;1.83;;;;;;;11.55;100.00;102501.81;10564958;28;20044;-63
2021/10/13 16:51:56;;;;;;;6.22;1.55;;;;;;;11.31;100.00;102504.34;10581849;28;20046;-63
2021/10/13 16:56:59;;;;;;;8.90;1.40;;;;;;;11.22;100.00;102509.91;10582248;28;20115;-63
2021/10/13 17:02:01;;;;;;;7.32;1.80;;;;;;;11.14;100.00;102502.28;10587186;28;20039;-63
2021/10/13 17:07:04;;;;;;;11.40;1.90;;;;;;;11.18;100.00;102506.53;10590605;28;20044;-63
2021/10/13 17:12:07;;;;;;;8.57;2.08;;;;;;;11.09;100.00;102506.81;10590105;28;20043;-63
2021/10/13 17:17:09;;;;;;;11.07;2.20;;;;;;;10.90;100.00;102510.03;10572131;28;20051;-63
2021/10/13 17:22:11;;;;;;;5.80;2.15;;;;;;;11.12;100.00;102504.94;10571662;28;20044;-60
2021/10/13 17:27:14;;;;;;;9.60;1.83;;;;;;;10.86;100.00;102507.53;10589942;28;20050;-61
2021/10/13 17:32:17;;;;;;;6.30;2.10;;;;;;;10.76;100.00;102512.22;10589224;28;20051;-60
2021/10/13 17:37:20;;;;;;;5.25;1.90;;;;;;;10.49;100.00;102514.78;10589612;28;20052;-60
2021/10/13 17:42:26;;;;;;;8.52;2.33;;;;;;;10.38;100.00;102514.22;10589212;28;20052;-60
2021/10/13 17:47:29;;;;;;;9.43;2.47;;;;;;;10.34;100.00;102523.94;10588894;28;20051;-60
2021/10/13 17:52:31;;;;;;;7.25;2.20;;;;;;;10.67;100.00;102523.81;10588658;28;20080;-60
2021/10/13 17:57:34;;;;;;;8.82;2.47;;;;;;;10.60;100.00;102517.06;10570379;28;20055;-60
2021/10/13 18:02:36;;;;;;;5.47;2.08;;;;;;;10.80;100.00;102526.09;10588198;28;20043;-63
2021/10/13 18:07:39;;;;;;;8.50;2.45;;;;;;;10.96;100.00;102532.53;10588024;28;20063;-61
2021/10/13 18:12:41;;;;;;;4.38;1.60;;;;;;;10.89;100.00;102531.91;10586792;28;20049;-61
2021/10/13 18:17:43;;;;;;;7.47;1.98;;;;;;;11.04;100.00;102540.19;10587569;28;20047;-61
2021/10/13 18:22:46;;;;;;;6.00;1.67;;;;;;;10.89;100.00;102539.78;10587481;28;20050;-63
2021/10/13 18:27:49;;;;;;;7.05;2.60;;;;;;;10.78;100.00;102542.72;10587009;28;20567;-61
2021/10/13 18:32:51;;;;;;;7.68;2.08;;;;;;;10.85;99.45;102542.53;10587028;28;20505;-61
2021/10/13 18:37:53;;;;;;;6.35;2.00;;;;;;;11.01;97.63;102537.66;10587225;28;20047;-61
2021/10/13 18:42:56;;;;;;;5.13;1.95;;;;;;;10.80;99.55;102545.28;10586479;28;20048;-61
2021/10/13 18:47:58;;;;;;;9.63;2.28;;;;;;;10.76;100.00;102544.53;10586351;28;20429;-61
2021/10/13 18:53:01;;;;;;;5.82;1.70;;;;;;;10.80;100.00;102545.28;10586333;28;20047;-61
2021/10/13 18:58:03;;;;;;;5.45;1.88;;;;;;;10.70;100.00;102543.84;10586093;28;20047;-61
2021/10/13 19:03:05;;;;;;;7.60;1.77;;;;;;;10.90;100.00;102545.88;10585957;28;20040;-60
2021/10/13 19:08:08;;;;;;;6.85;1.52;;;;;;;10.81;100.00;102548.75;10585559;28;20453;-61
2021/10/13 19:13:13;;;;;;;10.35;2.53;;;;;;;10.70;100.00;102534.22;10585286;28;20376;-61
2021/10/13 19:18:16;;;;;;;3.38;1.98;;;;;;;10.93;100.00;102537.91;10585828;28;20047;-61
2021/10/13 19:23:18;;;;;;;8.73;1.85;;;;;;;10.67;100.00;102529.06;10584637;28;20048;-61
2021/10/13 19:28:21;;;;;;;3.85;1.98;;;;;;;10.84;100.00;102536.41;10584712;28;20477;-61
2021/10/13 19:33:24;;;;;;;5.20;2.33;;;;;;;10.84;100.00;102538.19;10584645;28;20052;-61
2021/10/13 19:38:26;;;;;;;5.05;2.30;;;;;;;10.67;100.00;102547.41;10584885;28;20040;-61
2021/10/13 19:43:28;;;;;;;5.03;2.15;;;;;;;10.96;100.00;102554.41;10584302;28;20043;-61
2021/10/13 19:48:31;;;;;;;4.40;2.53;;;;;;;11.02;99.28;102544.63;10584237;28;20048;-61
2021/10/13 19:53:33;;;;;;;5.63;2.25;;;;;;;11.17;99.63;102549.38;10583625;28;20052;-61
2021/10/13 19:58:35;;;;;;;6.57;2.88;;;;;;;11.07;98.99;102555.81;10565553;28;20051;-61
2021/10/13 20:03:38;;;;;;;6.15;3.55;;;;;;;10.90;100.00;102559.81;10583617;28;20062;-61
2021/10/13 20:08:40;;;;;;;4.63;3.05;;;;;;;11.16;97.97;102566.00;10583173;28;20402;-60
2021/10/13 20:13:42;;;;;;;10.70;3.55;;;;;;;10.97;100.00;102563.09;10583009;28;20592;-61
2021/10/13 20:18:45;;;;;;;7.50;3.00;;;;;;;10.90;100.00;102567.69;10582839;28;20054;-60
2021/10/13 20:23:47;;;;;;;9.02;3.17;;;;;;;11.01;100.00;102563.88;10582601;28;20046;-60
2021/10/13 20:28:50;;;;;;;11.90;3.92;;;;;;;11.04;98.15;102564.63;10582441;28;20059;-60
2021/10/13 20:33:52;;;;;;;9.15;3.55;;;;;;;10.82;99.54;102561.81;10582811;28;20051;-61
2021/10/13 20:38:55;;;;;;;6.15;2.95;;;;;;;10.92;99.19;102567.63;10582022;28;20058;-60
2021/10/13 20:43:57;;;;;;;9.30;3.17;;;;;;;10.93;98.30;102558.88;10547461;28;20043;-61
2021/10/13 20:49:00;;;;;;;6.65;3.20;;;;;;;10.77;99.22;102555.84;10582230;28;20054;-61
2021/10/13 20:54:02;;;;;;;8.23;2.92;;;;;;;10.87;99.55;102549.41;10581862;28;20487;-61
2021/10/13 20:59:05;;;;;;;7.85;3.42;;;;;;;10.69;99.78;102548.25;10582197;28;20050;-61
2021/10/13 21:04:07;;;;;;;6.18;2.90;;;;;;;10.96;99.24;102550.91;10581487;28;20394;-61
2021/10/13 21:09:09;;;;;;;6.65;2.55;;;;;;;11.03;97.73;102538.47;10581328;28;20505;-61
2021/10/13 21:14:12;;;;;;;5.70;2.72;;;;;;;10.75;98.26;102545.41;10581657;28;20044;-61
2021/10/13 21:19:14;;;;;;;6.22;2.60;;;;;;;10.63;98.42;102535.31;10581307;28;20501;-60
2021/10/13 21:24:17;;;;;;;4.50;2.15;;;;;;;10.84;97.54;102536.41;10581043;28;20044;-60
2021/10/13 21:29:20;;;;;;;7.00;2.65;;;;;;;10.74;97.99;102529.75;10581098;28;20055;-60
2021/10/13 21:34:22;;;;;;;7.72;2.15;;;;;;;10.76;98.59;102538.44;10581842;28;20044;-60
2021/10/13 21:39:24;;;;;;;8.77;2.90;;;;;;;10.66;98.73;102532.59;10562788;28;20044;-61
2021/10/13 21:44:27;;;;;;;9.90;2.95;;;;;;;10.71;98.49;102524.63;10581002;28;20483;-61
2021/10/13 21:49:30;;;;;;;7.38;2.83;;;;;;;10.60;99.56;102525.78;10587832;28;20062;-60
2021/10/13 21:54:32;;;;;;;10.32;2.90;;;;;;;10.66;99.01;102526.50;10588687;28;20048;-60
2021/10/13 21:59:34;;;;;;;7.88;3.00;;;;;;;10.67;99.86;102522.97;10588318;28;20043;-61
2021/10/13 22:04:38;;;;;;;4.05;2.80;;;;;;;10.65;100.00;102511.69;10588597;28;20040;-60
2021/10/13 22:09:40;;;;;;;6.65;3.00;;;;;;;10.64;99.77;102502.09;10587804;28;20043;-60
2021/10/13 22:14:43;;;;;;;5.43;2.97;;;;;;;10.47;100.00;102510.47;10588208;28;20046;-60
2021/10/13 22:19:45;;;;;;;6.25;2.85;;;;;;;10.55;100.00;102501.47;10587586;28;20043;-60
2021/10/13 22:24:47;;;;;;;6.55;3.15;;;;;;;10.73;100.00;102494.84;10588255;28;20048;-61
2021/10/13 22:29:50;;;;;;;6.70;3.20;;;;;;;10.67;100.00;102495.00;10587240;28;20051;-60
2021/10/13 22:34:52;;;;;;;10.45;3.20;;;;;;;10.62;100.00;102491.69;10587700;28;20058;-60
2021/10/13 22:39:55;;;;;;;8.32;3.03;;;;;;;10.59;100.00;102497.00;10569203;28;20039;-60
2021/10/13 22:44:57;;;;;;;8.82;3.25;;;;;;;10.58;100.00;102485.69;10568755;28;20048;-60
2021/10/13 22:50:01;;;;;;;8.90;3.40;;;;;;;10.55;99.91;102483.16;10586774;28;20119;-60
2021/10/13 22:55:05;;;;;;;6.28;3.45;;;;;;;10.48;100.00;102480.78;10586263;28;20494;-61
2021/10/13 23:00:08;;;;;;;5.90;3.42;;;;;;;10.55;100.00;102482.31;10567863;28;20055;-61
2021/10/13 23:05:11;;;;;;;6.78;3.65;;;;;;;10.53;100.00;102469.25;10567998;28;20046;-61
2021/10/13 23:10:13;;;;;;;6.93;3.05;;;;;;;10.44;100.00;102476.53;10585198;28;20138;-61
2021/10/13 23:15:16;;;;;;;9.73;3.78;;;;;;;10.39;100.00;102468.81;10585421;28;20483;-60